Time;durP1;ratioP1;P1;durP2;ratioP2;P2;SDS_P1;SDS_P2;PMS_P1;PMS_P2;Temp;Humidity;BMP_temperature;BMP_pressure;BME280_temperature;BME280_humidity;BME280_pressure;Samples;Min_cycle;Max_cycle;Signal;HPM_P1;HPM_P2
2022/11/07 00:04:47;;;;;;;34.75;17.98;;;;;;;14.38;94.21;99181.72;4228823;82;28509;-85
2022/11/07 00:10:53;;;;;;;36.40;17.00;;;;;;;14.51;93.50;99187.28;4235939;83;28467;-85
2022/11/07 00:16:56;;;;;;;31.40;16.77;;;;;;;14.24;94.61;99189.94;4354415;81;28472;-85
2022/11/07 00:22:57;;;;;;;31.90;16.00;;;;;;;14.68;92.17;99191.77;4350075;80;28492;-83
2022/11/07 00:28:59;;;;;;;27.20;14.13;;;;;;;14.43;92.25;99184.49;4349904;81;28512;-83
2022/11/07 00:35:00;;;;;;;30.50;14.50;;;;;;;13.68;95.47;99186.74;4214852;84;28481;-82
2022/11/07 00:41:05;;;;;;;29.92;15.10;;;;;;;13.88;94.39;99181.62;4350896;80;28484;-85
2022/11/07 00:47:09;;;;;;;27.02;14.18;;;;;;;13.61;96.65;99178.81;4351027;80;28452;-83
2022/11/07 00:53:11;;;;;;;30.68;14.65;;;;;;;13.19;99.23;99172.75;4350529;80;28584;-84
2022/11/07 00:59:12;;;;;;;34.38;16.70;;;;;;;13.50;97.46;99167.86;4222245;83;28509;-88
2022/11/07 01:05:16;;;;;;;32.45;15.88;;;;;;;13.68;96.45;99157.86;4339719;80;28480;-86
2022/11/07 01:11:21;;;;;;;38.05;16.30;;;;;;;13.88;95.31;99161.91;4357537;80;28439;-87
2022/11/07 01:17:53;;;;;;;35.00;15.65;;;;;;;14.00;94.46;99159.07;4279574;81;28463;-88
2022/11/07 01:24:07;;;;;;;31.93;15.40;;;;;;;13.89;93.69;99156.78;4289241;81;28447;-84
2022/11/07 01:30:09;;;;;;;34.08;15.45;;;;;;;13.74;95.41;99146.59;4293009;82;28479;-84
2022/11/07 01:36:14;;;;;;;30.37;13.93;;;;;;;13.75;95.50;99143.64;4293112;82;28449;-84
2022/11/07 01:42:16;;;;;;;27.85;13.60;;;;;;;13.30;97.42;99147.27;4287107;81;28471;-83
2022/11/07 01:48:17;;;;;;;25.00;13.28;;;;;;;13.30;98.06;99142.70;4287167;82;28485;-82
2022/11/07 01:54:23;;;;;;;30.40;13.53;;;;;;;12.96;98.58;99131.87;4305270;82;28521;-84
2022/11/07 02:00:25;;;;;;;;;;;;;;;13.14;99.14;99130.02;4311931;83;28487;-84
2022/11/07 02:06:40;;;;;;;29.00;13.05;;;;;;;12.77;99.31;99122.69;4267433;81;20183;-85
2022/11/07 02:12:42;;;;;;;29.70;14.43;;;;;;;13.25;99.26;99119.66;4227154;84;28491;-85
2022/11/07 02:18:44;;;;;;;27.20;12.95;;;;;;;13.54;98.03;99115.52;4242204;84;28942;-84
2022/11/07 02:24:50;;;;;;;24.40;12.93;;;;;;;13.33;97.08;99112.49;4241934;84;28480;-84
2022/11/07 02:30:51;;;;;;;29.63;14.07;;;;;;;13.42;96.06;99099.92;4226563;84;28460;-84
2022/11/07 02:36:55;;;;;;;28.75;13.90;;;;;;;13.69;94.64;99099.22;4242068;84;28513;-84
2022/11/07 02:42:58;;;;;;;27.82;13.70;;;;;;;13.50;94.76;99096.84;4242124;84;28499;-84
2022/11/07 02:49:01;;;;;;;31.93;13.68;;;;;;;13.38;95.78;99102.30;4254879;82;29061;-85
2022/11/07 02:55:05;;;;;;;31.02;14.58;;;;;;;13.52;95.57;99089.30;4190656;84;28472;-84
2022/11/07 03:01:06;;;;;;;30.45;14.63;;;;;;;13.85;94.67;99087.55;4291420;83;28496;-85
2022/11/07 03:07:08;;;;;;;30.85;14.85;;;;;;;13.75;93.81;99076.62;4301016;82;28553;-83
2022/11/07 03:13:09;;;;;;;31.10;14.58;;;;;;;13.69;94.77;99081.66;4302928;83;28477;-84
2022/11/07 03:19:10;;;;;;;28.83;12.75;;;;;;;13.62;94.44;99087.25;4200522;85;28494;-83
2022/11/07 03:25:11;;;;;;;27.07;13.50;;;;;;;13.52;94.38;99083.89;4302950;82;28490;-83
2022/11/07 03:31:13;;;;;;;26.35;13.10;;;;;;;13.59;95.59;99076.44;4302814;83;28461;-84
2022/11/07 03:37:14;;;;;;;26.33;13.18;;;;;;;13.96;92.83;99076.34;4200731;85;28540;-85
2022/11/07 03:43:15;;;;;;;25.43;12.68;;;;;;;13.70;93.26;99092.23;4302803;83;28501;-84
2022/11/07 03:49:17;;;;;;;27.48;13.28;;;;;;;13.57;93.62;99086.65;4184662;85;28561;-84
2022/11/07 03:55:18;;;;;;;26.62;13.00;;;;;;;13.50;94.84;99092.78;4164747;85;28479;-84
2022/11/07 04:01:19;;;;;;;25.08;12.58;;;;;;;13.24;96.37;99083.76;4163488;85;28483;-84
2022/11/07 04:07:20;;;;;;;23.32;11.75;;;;;;;13.38;94.45;99080.17;4169245;85;28492;-85
2022/11/07 04:19:54;;;;;;;22.30;11.70;;;;;;;13.68;93.21;99082.73;4170945;85;28474;-85
2022/11/07 04:32:17;;;;;;;25.10;11.57;;;;;;;13.84;92.22;99072.41;4171240;84;20197;-86
2022/11/07 04:38:19;;;;;;;24.72;11.85;;;;;;;13.84;91.50;99071.58;4170824;84;28510;-86
2022/11/07 04:44:20;;;;;;;21.87;10.88;;;;;;;13.70;92.21;99056.30;4170978;85;28493;-85
2022/11/07 04:50:23;;;;;;;21.68;11.12;;;;;;;13.74;92.12;99060.12;4228954;83;28446;-85
2022/11/07 04:56:24;;;;;;;18.82;9.95;;;;;;;13.71;91.91;99054.68;4192888;84;28462;-87
2022/11/07 05:02:26;;;;;;;20.12;10.70;;;;;;;13.59;93.18;99049.95;4291246;83;28480;-84
2022/11/07 05:08:27;;;;;;;21.85;11.18;;;;;;;13.92;92.14;99049.00;4357594;82;28480;-83
2022/11/07 05:14:30;;;;;;;22.45;11.33;;;;;;;13.96;91.73;99045.78;4231856;84;28453;-83
2022/11/07 05:20:35;;;;;;;19.40;10.58;;;;;;;14.25;89.74;99038.23;4361953;80;28496;-83
2022/11/07 05:26:37;;;;;;;21.20;11.00;;;;;;;14.11;89.96;99037.85;4323208;81;44406;-74
2022/11/07 05:32:40;;;;;;;21.02;11.12;;;;;;;14.16;89.66;99041.11;4297421;81;28615;-74
2022/11/07 05:38:43;;;;;;;23.07;10.75;;;;;;;14.18;88.95;99039.80;4302855;82;28548;-74
2022/11/07 05:44:45;;;;;;;20.75;10.13;;;;;;;14.26;88.50;99051.23;4298766;82;28471;-75
2022/11/07 05:50:46;;;;;;;22.20;11.08;;;;;;;14.22;87.83;99060.39;4264442;81;28509;-75
2022/11/07 05:56:47;;;;;;;22.05;11.45;;;;;;;14.56;86.82;99060.16;4252015;81;28504;-76
2022/11/07 06:02:59;;;;;;;22.35;11.68;;;;;;;14.64;85.78;99065.11;4303636;81;28537;-75
2022/11/07 06:09:00;;;;;;;21.73;11.75;;;;;;;14.75;85.35;99084.17;4279782;82;28576;-74
2022/11/07 06:15:01;;;;;;;22.22;11.53;;;;;;;14.70;85.69;99109.82;4246925;83;28481;-75
2022/11/07 06:21:02;;;;;;;24.40;12.47;;;;;;;14.82;85.89;99102.90;4276655;81;28503;-81
2022/11/07 06:27:04;;;;;;;23.85;12.75;;;;;;;14.62;86.42;99107.02;4353847;80;28524;-82
2022/11/07 06:33:15;;;;;;;25.32;12.07;;;;;;;14.74;86.79;99116.37;4325610;81;28572;-82
2022/11/07 06:39:16;;;;;;;21.95;11.90;;;;;;;15.03;85.70;99122.84;4279579;82;28485;-83
2022/11/07 06:45:17;;;;;;;23.83;12.90;;;;;;;15.14;85.19;99132.68;4279245;81;28523;-85
2022/11/07 06:51:19;;;;;;;23.30;12.50;;;;;;;15.19;84.80;99141.38;4278728;81;28470;-85
2022/11/07 06:57:20;;;;;;;26.57;13.53;;;;;;;14.57;89.22;99144.31;4278697;81;28535;-85
2022/11/07 07:03:22;;;;;;;23.98;12.63;;;;;;;14.42;91.10;99141.45;4278844;81;28459;-85
2022/11/07 07:09:25;;;;;;;28.05;13.03;;;;;;;14.67;89.46;99146.84;4199372;82;28466;-85
2022/11/07 07:15:27;;;;;;;23.67;12.40;;;;;;;14.64;90.27;99146.84;4238886;83;28570;-85
2022/11/07 07:21:28;;;;;;;21.35;12.03;;;;;;;15.20;86.99;99141.66;4236062;83;28526;-85
2022/11/07 07:27:29;;;;;;;28.17;13.58;;;;;;;15.61;84.35;99142.46;4236455;83;28498;-85
2022/11/07 07:33:31;;;;;;;25.05;13.35;;;;;;;15.79;82.55;99148.53;4236728;83;28464;-85
2022/11/07 07:39:32;;;;;;;25.32;12.70;;;;;;;15.34;84.93;99148.80;4237003;83;28485;-85
2022/11/07 07:45:34;;;;;;;21.95;12.23;;;;;;;15.28;84.73;99145.25;4236455;83;28481;-85
2022/11/07 07:51:35;;;;;;;23.60;12.47;;;;;;;15.52;83.57;99138.08;4236216;83;28445;-85
2022/11/07 07:57:42;;;;;;;23.67;11.93;;;;;;;16.35;79.35;99113.24;4236460;83;28503;-85
2022/11/07 08:03:50;;;;;;;22.30;11.53;;;;;;;15.78;83.68;99121.98;4236934;82;28487;-85
2022/11/07 08:09:47;;;;;;;21.12;11.80;;;;;;;16.06;84.60;99126.72;4342272;81;28558;-86
2022/11/07 08:15:50;;;;;;;22.17;11.95;;;;;;;16.01;84.16;99130.23;4335311;80;28495;-85
2022/11/07 08:21:52;;;;;;;23.67;11.55;;;;;;;16.15;82.49;99131.11;4318414;81;28479;-85
2022/11/07 08:27:54;;;;;;;21.90;11.85;;;;;;;16.21;80.46;99130.59;4299916;81;28541;-85
2022/11/07 08:33:59;;;;;;;25.17;12.00;;;;;;;16.31;81.81;99127.91;4300110;81;28509;-85
2022/11/07 08:40:04;;;;;;;23.02;11.57;;;;;;;16.54;79.96;99134.72;4318317;82;28519;-85
2022/11/07 08:46:05;;;;;;;22.45;11.65;;;;;;;17.47;75.07;99129.06;4318602;81;28511;-85
2022/11/07 08:52:07;;;;;;;18.70;10.88;;;;;;;17.83;72.86;99136.58;4327237;81;28467;-85
2022/11/07 08:58:08;;;;;;;22.30;11.80;;;;;;;18.06;70.35;99145.80;4287058;82;28577;-85
2022/11/07 09:04:10;;;;;;;20.85;10.98;;;;;;;18.25;69.74;99145.44;4213160;83;28502;-85
2022/11/07 09:10:11;;;;;;;21.30;11.22;;;;;;;18.18;69.13;99147.64;4306007;83;28506;-86
2022/11/07 09:16:16;;;;;;;19.40;10.65;;;;;;;18.76;67.05;99150.86;4206477;84;28474;-86
2022/11/07 09:22:17;;;;;;;22.10;11.95;;;;;;;18.96;67.10;99158.08;4308971;82;28477;-86
2022/11/07 09:28:18;;;;;;;18.35;11.03;;;;;;;19.13;66.26;99167.24;4308668;83;28471;-86
2022/11/07 09:34:19;;;;;;;20.43;10.90;;;;;;;19.09;65.31;99170.25;4206391;85;28521;-86
2022/11/07 09:40:42;;;;;;;20.27;11.10;;;;;;;19.08;65.51;99179.00;4308693;83;28505;-86
2022/11/07 09:47:08;;;;;;;16.95;10.00;;;;;;;18.96;65.10;99177.16;4308807;83;28450;-87
2022/11/07 09:53:21;;;;;;;18.75;10.13;;;;;;;19.28;63.99;99175.84;4266142;82;28505;-87
2022/11/07 09:59:54;;;;;;;20.85;11.45;;;;;;;18.60;64.43;99182.81;4248159;83;28519;-87
2022/11/07 10:06:18;;;;;;;21.48;11.95;;;;;;;19.29;62.29;99187.00;4262823;82;28490;-87
2022/11/07 10:12:53;;;;;;;21.87;11.68;;;;;;;18.65;64.90;99179.52;4298878;82;28498;-87
2022/11/07 10:19:18;;;;;;;14.03;8.18;;;;;;;18.90;64.08;99175.55;4299391;82;28596;-86
2022/11/07 10:25:40;;;;;;;15.78;7.47;;;;;;;18.62;61.31;99171.09;4299394;82;28509;-86
2022/11/07 10:32:01;;;;;;;12.37;6.90;;;;;;;18.63;59.71;99179.52;4299205;82;28454;-86
2022/11/07 10:38:20;;;;;;;13.35;6.83;;;;;;;18.37;59.44;99171.51;4281308;82;28486;-87
2022/11/07 10:44:28;;;;;;;12.93;6.90;;;;;;;18.74;59.58;99172.91;4298261;82;28536;-86
2022/11/07 10:50:29;;;;;;;13.75;6.97;;;;;;;18.44;58.22;99180.72;4305929;81;28464;-86
2022/11/07 10:56:51;;;;;;;10.43;6.45;;;;;;;18.10;60.07;99191.74;4206385;83;28509;-87
2022/11/07 11:02:55;;;;;;;9.58;5.33;;;;;;;18.45;59.11;99194.59;4367919;80;28535;-86
2022/11/07 11:08:58;;;;;;;9.63;4.97;;;;;;;17.68;57.99;99198.61;4219874;83;28520;-85
2022/11/07 11:15:11;;;;;;;11.50;5.08;;;;;;;18.74;56.88;99193.34;4342493;81;28473;-86
2022/11/07 11:21:22;;;;;;;8.95;4.62;;;;;;;18.77;57.27;99188.71;4342715;81;28484;-86
2022/11/07 11:27:28;;;;;;;8.05;4.20;;;;;;;18.39;57.21;99190.55;4342540;81;28477;-86
2022/11/07 11:33:38;;;;;;;9.30;4.55;;;;;;;18.40;57.11;99183.19;4342676;81;28464;-85
2022/11/07 11:40:03;;;;;;;7.70;3.70;;;;;;;18.44;55.77;99185.64;4334394;82;28501;-85
2022/11/07 11:46:15;;;;;;;6.53;3.85;;;;;;;18.81;55.56;99176.14;4342760;82;28538;-85
2022/11/07 11:52:21;;;;;;;7.08;3.40;;;;;;;18.88;55.58;99178.55;4302790;80;28488;-85
2022/11/07 11:58:52;;;;;;;5.47;3.15;;;;;;;18.30;55.48;99175.90;4354217;80;28453;-86
2022/11/07 12:05:46;;;;;;;5.67;3.17;;;;;;;18.11;55.37;99185.20;4207106;83;28553;-87
2022/11/07 12:12:29;;;;;;;4.75;2.52;;;;;;;17.62;55.72;99182.06;4287571;82;28863;-87
2022/11/07 12:18:41;;;;;;;6.67;3.05;;;;;;;17.65;56.09;99181.50;4273426;82;28496;-86
2022/11/07 12:25:24;;;;;;;5.83;3.10;;;;;;;17.44;56.70;99187.49;4212319;83;28492;-86
2022/11/07 12:31:49;;;;;;;7.12;3.15;;;;;;;17.12;57.35;99170.94;4253534;82;35202;-86
2022/11/07 12:37:59;;;;;;;6.45;2.95;;;;;;;17.06;57.05;99178.83;4195847;82;28502;-87
2022/11/07 12:44:32;;;;;;;7.17;2.75;;;;;;;17.34;57.05;99184.25;4276827;82;28480;-87
2022/11/07 12:50:47;;;;;;;6.20;2.40;;;;;;;17.30;57.33;99194.05;4246134;83;28542;-86
2022/11/07 12:56:50;;;;;;;3.40;1.90;;;;;;;17.87;55.58;99202.13;4277488;82;28451;-86
2022/11/07 13:03:13;;;;;;;4.05;1.95;;;;;;;17.90;55.75;99200.77;4277718;82;28470;-89
2022/11/07 13:09:34;;;;;;;5.22;1.98;;;;;;;17.89;55.32;99204.58;4339666;80;28533;-89
2022/11/07 13:15:39;;;;;;;4.42;2.65;;;;;;;17.59;55.71;99201.62;4230219;82;28476;-89
2022/11/07 13:21:42;;;;;;;4.90;2.40;;;;;;;17.51;55.81;99211.14;4303927;81;28459;-88
2022/11/07 13:27:58;;;;;;;4.40;2.65;;;;;;;17.64;55.74;99204.34;4316174;82;28556;-89
2022/11/07 13:34:23;;;;;;;3.67;2.20;;;;;;;17.54;56.04;99201.08;4316224;82;28526;-87
2022/11/07 13:40:33;;;;;;;4.30;2.30;;;;;;;17.55;56.23;99205.45;4276656;82;28494;-88
2022/11/07 13:46:48;;;;;;;3.55;2.27;;;;;;;16.92;57.00;99205.13;4316071;82;28464;-88
2022/11/07 13:53:03;;;;;;;6.13;2.53;;;;;;;16.81;57.66;99207.53;4285180;82;28465;-89
2022/11/07 13:59:13;;;;;;;3.72;2.25;;;;;;;16.58;58.52;99216.44;4315669;82;33788;-89
2022/11/07 14:05:15;;;;;;;4.67;2.25;;;;;;;16.95;57.18;99220.88;4261144;82;28502;-89
2022/11/07 14:11:21;;;;;;;6.08;2.50;;;;;;;17.17;57.45;99223.92;4271639;83;28479;-89
2022/11/07 14:17:34;;;;;;;5.70;2.43;;;;;;;16.98;58.17;99232.55;4267544;83;28475;-89
2022/11/07 14:23:35;;;;;;;3.30;1.77;;;;;;;17.21;57.38;99236.42;4267736;83;28451;-89
2022/11/07 14:29:37;;;;;;;4.17;2.40;;;;;;;16.69;58.66;99256.09;4264312;83;28550;-90
2022/11/07 14:35:50;;;;;;;6.67;2.40;;;;;;;16.72;58.85;99252.04;4264425;83;28455;-89
2022/11/07 14:41:58;;;;;;;5.17;2.30;;;;;;;17.46;57.75;99256.54;4264976;83;28468;-91
2022/11/07 14:48:02;;;;;;;4.50;2.67;;;;;;;17.69;56.79;99252.46;4246877;83;28486;-90
2022/11/07 14:54:12;;;;;;;4.45;2.37;;;;;;;17.61;57.04;99259.80;4193640;83;28571;-91
2022/11/07 15:00:19;;;;;;;5.65;2.70;;;;;;;17.59;57.08;99264.70;4192890;84;28512;-90
2022/11/07 15:06:25;;;;;;;4.30;2.30;;;;;;;17.29;57.44;99268.50;4200194;84;28491;-90
2022/11/07 15:12:31;;;;;;;3.90;2.15;;;;;;;17.09;57.89;99271.45;4228474;83;28468;-89
2022/11/07 15:18:40;;;;;;;4.03;2.33;;;;;;;16.93;58.56;99267.86;4218829;83;28443;-89
2022/11/07 15:24:49;;;;;;;4.25;2.40;;;;;;;17.22;58.10;99274.73;4218635;83;28511;-91
2022/11/07 15:30:57;;;;;;;5.35;2.30;;;;;;;17.22;58.23;99265.22;4196038;83;28446;-88
2022/11/07 15:37:18;;;;;;;6.58;2.35;;;;;;;16.37;60.06;99273.34;4201808;84;28477;-87
2022/11/07 15:43:16;;;;;;;4.93;2.27;;;;;;;16.89;58.99;99272.17;4198726;83;28483;-88
2022/11/07 15:49:22;;;;;;;4.53;2.30;;;;;;;16.36;59.91;99285.27;4219085;83;28467;-86
2022/11/07 15:55:25;;;;;;;8.13;3.25;;;;;;;16.06;60.90;99284.02;4212692;82;28578;-86
2022/11/07 16:01:30;;;;;;;9.33;3.40;;;;;;;16.04;60.83;99291.59;4197845;83;28571;-85
2022/11/07 16:07:31;;;;;;;4.87;2.92;;;;;;;15.90;61.16;99300.72;4257015;81;28444;-78
2022/11/07 16:13:33;;;;;;;8.23;3.33;;;;;;;15.75;61.64;99295.44;4203857;83;28541;-79
2022/11/07 16:19:34;;;;;;;6.17;3.12;;;;;;;15.55;62.08;99304.20;4219063;81;28614;-78
2022/11/07 16:25:43;;;;;;;10.65;3.60;;;;;;;15.63;62.09;99306.17;4190417;83;29001;-78
2022/11/07 16:31:44;;;;;;;6.75;3.30;;;;;;;15.32;62.75;99304.81;4206745;83;28470;-77
2022/11/07 16:37:46;;;;;;;5.90;3.27;;;;;;;15.15;63.23;99320.33;4198366;83;28475;-77
2022/11/07 16:43:47;;;;;;;7.62;4.03;;;;;;;14.69;64.94;99321.41;4217689;83;28454;-89
2022/11/07 16:49:54;;;;;;;7.83;4.28;;;;;;;14.98;63.72;99324.48;4278774;81;28472;-89
2022/11/07 16:56:32;;;;;;;6.85;4.10;;;;;;;14.75;64.01;99322.33;4215880;82;28440;-91
2022/11/07 17:02:32;;;;;;;10.43;5.00;;;;;;;14.93;63.77;99326.59;4218849;82;28482;-88
2022/11/07 17:15:27;;;;;;;12.03;5.15;;;;;;;14.58;64.78;99329.95;4169950;84;28450;-90
2022/11/07 17:21:52;;;;;;;;;;;;;;;;;;;;;
2022/11/07 17:28:05;;;;;;;9.70;5.22;;;;;;;14.78;64.32;99331.29;4197682;83;28494;-80
2022/11/07 17:34:05;;;;;;;10.80;5.50;;;;;;;14.44;65.02;99340.31;4213205;83;28541;-78
2022/11/07 17:40:17;;;;;;;10.65;4.83;;;;;;;14.40;65.24;99352.68;4198123;83;28515;-79
2022/11/07 17:46:31;;;;;;;11.20;4.87;;;;;;;14.27;65.68;99340.34;4215974;84;28632;-80
2022/11/07 17:52:36;;;;;;;13.13;6.28;;;;;;;14.26;65.62;99354.11;4209035;83;28454;-77
2022/11/07 17:58:37;;;;;;;12.10;6.25;;;;;;;13.43;68.08;99352.17;4205349;83;28474;-79
2022/11/07 18:10:52;;;;;;;11.10;6.22;;;;;;;13.41;69.98;99345.40;3951096;86;28480;-78
2022/11/07 18:16:54;;;;;;;17.32;8.90;;;;;;;13.65;68.94;99343.42;3943874;88;28516;-78
2022/11/07 18:22:55;;;;;;;15.20;7.05;;;;;;;13.59;69.36;99348.44;4021575;87;28493;-79
2022/11/07 18:29:06;;;;;;;12.23;7.42;;;;;;;13.32;70.86;99339.03;3927058;88;28515;-79
2022/11/07 18:35:10;;;;;;;16.05;7.85;;;;;;;13.16;70.64;99335.23;4023947;86;28523;-80
2022/11/07 18:41:16;;;;;;;14.95;8.58;;;;;;;13.31;70.53;99336.56;4025587;87;28507;-78
2022/11/07 18:47:18;;;;;;;18.32;7.92;;;;;;;13.27;70.39;99335.42;4146324;82;28438;-77
2022/11/07 18:53:20;;;;;;;17.17;8.70;;;;;;;13.07;71.11;99346.11;4216989;81;28552;-77
2022/11/07 18:59:23;;;;;;;15.88;8.70;;;;;;;12.90;72.54;99342.00;4227879;82;28483;-77
2022/11/07 19:05:28;;;;;;;15.70;7.85;;;;;;;13.00;72.18;99348.13;4228783;82;28567;-83
2022/11/07 19:11:30;;;;;;;18.17;9.80;;;;;;;12.18;74.45;99363.66;4211292;82;28542;-84
2022/11/07 19:17:34;;;;;;;17.07;8.78;;;;;;;12.03;78.88;99360.06;4235247;82;28562;-83
2022/11/07 19:23:40;;;;;;;17.60;8.38;;;;;;;12.25;78.58;99364.37;4224672;82;28462;-87
2022/11/07 19:29:45;;;;;;;15.40;8.63;;;;;;;12.14;76.96;99382.70;4197670;83;28474;-87
2022/11/07 19:36:18;;;;;;;;;;;;;;;;;;;;;
2022/11/07 19:42:38;;;;;;;16.07;7.67;;;;;;;12.13;76.82;99371.60;4077175;83;28471;-87
2022/11/07 19:48:37;;;;;;;13.55;8.33;;;;;;;11.98;77.26;99374.20;4183834;83;28488;-81
2022/11/07 19:54:43;;;;;;;13.05;8.75;;;;;;;11.89;77.55;99371.55;4191358;84;28509;-83
2022/11/07 20:00:44;;;;;;;17.87;8.60;;;;;;;11.81;80.09;99374.57;4214105;83;28469;-80
2022/11/07 20:06:45;;;;;;;18.80;8.80;;;;;;;11.73;79.73;99377.63;4214116;83;28529;-79
2022/11/07 20:12:47;;;;;;;16.20;8.73;;;;;;;11.67;78.83;99383.41;4214351;83;28457;-76
2022/11/07 20:18:48;;;;;;;16.48;8.75;;;;;;;11.63;79.74;99389.77;4210038;83;28552;-77
2022/11/07 20:24:50;;;;;;;15.72;8.50;;;;;;;11.68;80.03;99387.20;4205767;83;28473;-77
2022/11/07 20:30:54;;;;;;;16.93;8.70;;;;;;;11.65;79.46;99377.41;4194034;83;28526;-75
2022/11/07 20:36:56;;;;;;;15.00;8.53;;;;;;;11.53;78.76;99385.47;4138885;84;28458;-86
2022/11/07 20:43:00;;;;;;;16.57;8.85;;;;;;;11.39;79.28;99386.97;4138291;85;28548;-87
2022/11/07 20:49:15;;;;;;;16.73;9.35;;;;;;;11.41;78.78;99390.28;4142735;85;28514;-91
2022/11/07 20:55:19;;;;;;;;;;;;;;;11.42;80.12;99401.34;4120589;84;28515;-87
2022/11/07 21:01:37;;;;;;;20.72;10.63;;;;;;;11.29;79.51;99396.95;4132317;85;20609;-90
2022/11/07 21:07:47;;;;;;;15.68;9.75;;;;;;;11.12;78.39;99406.68;4128443;84;28502;-83
2022/11/07 21:13:48;;;;;;;17.73;9.58;;;;;;;11.09;78.79;99415.22;4135432;85;28491;-83
2022/11/07 21:19:51;;;;;;;17.23;10.03;;;;;;;11.16;78.61;99414.08;4234654;81;28499;-84
2022/11/07 21:25:53;;;;;;;19.85;9.38;;;;;;;11.09;78.34;99418.74;4298459;83;28462;-84
2022/11/07 21:31:54;;;;;;;18.48;9.85;;;;;;;11.01;78.55;99411.77;4302742;81;28478;-80
2022/11/07 21:37:56;;;;;;;19.23;10.45;;;;;;;10.94;78.67;99415.59;4278475;81;28503;-81
2022/11/07 21:43:57;;;;;;;17.98;9.48;;;;;;;10.94;79.00;99413.73;4296520;81;28558;-81
2022/11/07 21:49:58;;;;;;;17.00;9.75;;;;;;;10.73;77.47;99423.05;4298924;81;28612;-77
2022/11/07 21:56:00;;;;;;;20.10;10.10;;;;;;;10.85;77.28;99419.11;4277919;81;28498;-81
2022/11/07 22:02:01;;;;;;;14.63;9.05;;;;;;;10.81;77.66;99420.08;4289645;81;28519;-81
2022/11/07 22:08:02;;;;;;;17.62;9.75;;;;;;;10.96;76.44;99421.05;4299016;81;28470;-80
2022/11/07 22:14:04;;;;;;;22.52;12.73;;;;;;;10.75;76.68;99418.27;4296972;81;28552;-81
2022/11/07 22:20:06;;;;;;;20.30;11.22;;;;;;;10.65;76.98;99421.48;4308031;81;28486;-80
2022/11/07 22:26:15;;;;;;;20.40;9.90;;;;;;;10.93;75.95;99419.33;4309464;81;28509;-80
2022/11/07 22:32:17;;;;;;;19.82;11.33;;;;;;;10.70;75.68;99433.72;4311501;82;28504;-80
2022/11/07 22:38:18;;;;;;;19.82;10.38;;;;;;;10.82;76.92;99432.98;4308221;82;28522;-81
2022/11/07 22:44:19;;;;;;;20.80;10.32;;;;;;;10.82;77.28;99427.09;4311394;81;28479;-83
2022/11/07 22:50:24;;;;;;;15.68;9.50;;;;;;;10.75;77.34;99429.02;4311189;81;28485;-77
2022/11/07 22:56:28;;;;;;;17.37;9.43;;;;;;;10.66;76.96;99428.50;4321948;82;28580;-79
2022/11/07 23:02:31;;;;;;;17.98;9.45;;;;;;;10.64;76.02;99429.25;4312975;82;28509;-79
2022/11/07 23:08:33;;;;;;;16.77;9.58;;;;;;;10.52;75.96;99427.80;4302054;81;28528;-80
2022/11/07 23:14:34;;;;;;;19.05;9.70;;;;;;;10.51;76.36;99419.94;4304933;82;28478;-79
2022/11/07 23:26:56;;;;;;;18.12;8.83;;;;;;;10.42;76.87;99420.25;4296249;81;28518;-79
2022/11/07 23:32:57;;;;;;;15.35;8.73;;;;;;;10.54;75.98;99423.02;4295975;81;28503;-78
2022/11/07 23:39:04;;;;;;;17.37;8.45;;;;;;;10.58;75.13;99419.37;4296165;81;28567;-76
2022/11/07 23:51:27;;;;;;;17.30;9.88;;;;;;;10.77;74.67;99416.70;4286869;83;28478;-75
2022/11/07 23:57:28;;;;;;;16.57;8.38;;;;;;;10.53;77.80;99419.22;4283120;82;28577;-76
